sensor_id;sensor_type;location;lat;lon;timestamp;P1;durP1;ratioP1;P2;durP2;ratioP2
32451;SDS011;45528;52.102;5.242;2023-08-01T00:00:26;4.41;;;1.7;;
32451;SDS011;45528;52.102;5.242;2023-08-01T00:02:02;5.4;;;1.5;;
32451;SDS011;45528;52.102;5.242;2023-08-01T00:03:38;4.41;;;1.6;;
32451;SDS011;45528;52.102;5.242;2023-08-01T00:06:50;4.0;;;1.6;;
32451;SDS011;45528;52.102;5.242;2023-08-01T00:08:27;4.61;;;1.5;;
32451;SDS011;45528;52.102;5.242;2023-08-01T00:10:03;4.3;;;1.4;;
32451;SDS011;45528;52.102;5.242;2023-08-01T00:13:16;4.8;;;1.7;;
32451;SDS011;45528;52.102;5.242;2023-08-01T00:14:52;3.1;;;1.5;;
32451;SDS011;45528;52.102;5.242;2023-08-01T00:16:28;5.6;;;1.9;;
32451;SDS011;45528;52.102;5.242;2023-08-01T00:18:04;4.7;;;1.4;;
32451;SDS011;45528;52.102;5.242;2023-08-01T00:21:17;4.8;;;1.7;;
32451;SDS011;45528;52.102;5.242;2023-08-01T00:22:53;3.5;;;1.6;;
32451;SDS011;45528;52.102;5.242;2023-08-01T00:24:29;4.8;;;1.8;;
32451;SDS011;45528;52.102;5.242;2023-08-01T00:27:41;3.7;;;1.5;;
32451;SDS011;45528;52.102;5.242;2023-08-01T04:11:01;7.7;;;2.5;;
32451;SDS011;45528;52.102;5.242;2023-08-01T04:12:37;6.3;;;2.7;;
32451;SDS011;45528;52.102;5.242;2023-08-01T04:15:49;6.1;;;2.5;;
32451;SDS011;45528;52.102;5.242;2023-08-01T04:19:02;5.4;;;2.4;;
32451;SDS011;45528;52.102;5.242;2023-08-01T04:22:15;7.3;;;2.21;;
32451;SDS011;45528;52.102;5.242;2023-08-01T04:23:51;9.21;;;2.7;;
32451;SDS011;45528;52.102;5.242;2023-08-01T04:25:27;8.6;;;2.7;;
32451;SDS011;45528;52.102;5.242;2023-08-01T04:27:03;8.2;;;2.6;;
32451;SDS011;45528;52.102;5.242;2023-08-01T04:30:16;7.6;;;2.7;;
32451;SDS011;45528;52.102;5.242;2023-08-01T04:31:52;9.81;;;2.9;;
32451;SDS011;45528;52.102;5.242;2023-08-01T04:33:29;9.71;;;3.0;;
32451;SDS011;45528;52.102;5.242;2023-08-01T04:36:42;6.4;;;2.6;;
32451;SDS011;45528;52.102;5.242;2023-08-01T04:38:18;5.3;;;2.31;;
32451;SDS011;45528;52.102;5.242;2023-08-01T04:39:54;12.5;;;3.1;;
32451;SDS011;45528;52.102;5.242;2023-08-01T04:43:06;8.0;;;2.7;;
32451;SDS011;45528;52.102;5.242;2023-08-01T04:44:42;8.0;;;2.8;;
32451;SDS011;45528;52.102;5.242;2023-08-01T04:46:18;7.3;;;3.0;;
32451;SDS011;45528;52.102;5.242;2023-08-01T04:47:54;7.8;;;2.7;;
32451;SDS011;45528;52.102;5.242;2023-08-01T04:51:07;10.7;;;3.2;;
32451;SDS011;45528;52.102;5.242;2023-08-01T04:52:43;8.6;;;3.2;;
32451;SDS011;45528;52.102;5.242;2023-08-01T04:54:19;5.11;;;3.0;;
32451;SDS011;45528;52.102;5.242;2023-08-01T04:57:31;9.21;;;3.3;;
32451;SDS011;45528;52.102;5.242;2023-08-01T04:59:07;7.8;;;2.8;;
32451;SDS011;45528;52.102;5.242;2023-08-01T05:00:43;9.21;;;3.1;;
32451;SDS011;45528;52.102;5.242;2023-08-01T05:03:55;8.81;;;2.7;;
32451;SDS011;45528;52.102;5.242;2023-08-01T05:05:31;6.1;;;3.0;;
32451;SDS011;45528;52.102;5.242;2023-08-01T05:07:07;11.0;;;3.0;;
32451;SDS011;45528;52.102;5.242;2023-08-01T05:10:19;7.7;;;3.3;;
32451;SDS011;45528;52.102;5.242;2023-08-01T05:11:55;10.4;;;3.1;;
32451;SDS011;45528;52.102;5.242;2023-08-01T05:13:31;7.3;;;3.0;;
32451;SDS011;45528;52.102;5.242;2023-08-01T05:15:08;7.8;;;2.9;;
32451;SDS011;45528;52.102;5.242;2023-08-01T05:18:20;7.9;;;3.1;;
32451;SDS011;45528;52.102;5.242;2023-08-01T05:19:56;10.9;;;3.3;;
32451;SDS011;45528;52.102;5.242;2023-08-01T05:21:32;4.7;;;2.5;;
32451;SDS011;45528;52.102;5.242;2023-08-01T05:24:45;7.9;;;3.0;;
32451;SDS011;45528;52.102;5.242;2023-08-01T05:26:21;7.0;;;3.0;;
32451;SDS011;45528;52.102;5.242;2023-08-01T05:27:57;10.0;;;2.5;;
32451;SDS011;45528;52.102;5.242;2023-08-01T05:31:09;10.7;;;3.2;;
32451;SDS011;45528;52.102;5.242;2023-08-01T05:32:46;11.6;;;3.5;;
32451;SDS011;45528;52.102;5.242;2023-08-01T05:34:22;10.8;;;3.1;;
32451;SDS011;45528;52.102;5.242;2023-08-01T05:37:34;10.0;;;3.0;;
32451;SDS011;45528;52.102;5.242;2023-08-01T05:39:10;8.31;;;2.8;;
32451;SDS011;45528;52.102;5.242;2023-08-01T05:40:46;8.2;;;3.2;;
32451;SDS011;45528;52.102;5.242;2023-08-01T05:42:22;6.1;;;2.4;;
32451;SDS011;45528;52.102;5.242;2023-08-01T05:45:35;5.7;;;2.5;;
32451;SDS011;45528;52.102;5.242;2023-08-01T05:47:10;7.6;;;2.6;;
32451;SDS011;45528;52.102;5.242;2023-08-01T05:48:47;5.7;;;2.4;;
32451;SDS011;45528;52.102;5.242;2023-08-01T05:51:59;5.2;;;2.5;;
32451;SDS011;45528;52.102;5.242;2023-08-01T05:53:35;7.8;;;2.5;;
32451;SDS011;45528;52.102;5.242;2023-08-01T05:55:11;8.5;;;2.8;;
32451;SDS011;45528;52.102;5.242;2023-08-01T05:58:24;8.2;;;2.7;;
32451;SDS011;45528;52.102;5.242;2023-08-01T06:00:00;7.3;;;2.7;;
32451;SDS011;45528;52.102;5.242;2023-08-01T06:01:36;7.6;;;2.6;;
32451;SDS011;45528;52.102;5.242;2023-08-01T06:04:48;7.0;;;2.7;;
32451;SDS011;45528;52.102;5.242;2023-08-01T06:06:25;6.8;;;2.8;;
32451;SDS011;45528;52.102;5.242;2023-08-01T06:08:01;6.7;;;2.31;;
32451;SDS011;45528;52.102;5.242;2023-08-01T06:09:37;7.8;;;2.7;;
32451;SDS011;45528;52.102;5.242;2023-08-01T06:12:50;6.4;;;2.5;;
32451;SDS011;45528;52.102;5.242;2023-08-01T06:14:26;11.6;;;2.21;;
32451;SDS011;45528;52.102;5.242;2023-08-01T06:16:02;4.91;;;2.4;;
32451;SDS011;45528;52.102;5.242;2023-08-01T06:19:14;6.4;;;2.31;;
32451;SDS011;45528;52.102;5.242;2023-08-01T06:20:50;5.6;;;2.31;;
32451;SDS011;45528;52.102;5.242;2023-08-01T06:22:26;7.3;;;2.31;;
32451;SDS011;45528;52.102;5.242;2023-08-01T06:25:38;3.8;;;2.31;;
32451;SDS011;45528;52.102;5.242;2023-08-01T06:27:15;7.4;;;2.21;;
32451;SDS011;45528;52.102;5.242;2023-08-01T06:28:52;6.1;;;2.31;;
32451;SDS011;45528;52.102;5.242;2023-08-01T06:30:28;7.3;;;2.21;;
32451;SDS011;45528;52.102;5.242;2023-08-01T06:33:41;7.6;;;2.4;;
32451;SDS011;45528;52.102;5.242;2023-08-01T06:35:17;11.7;;;2.6;;
32451;SDS011;45528;52.102;5.242;2023-08-01T06:36:53;3.8;;;2.21;;
32451;SDS011;45528;52.102;5.242;2023-08-01T06:40:06;6.9;;;2.0;;
32451;SDS011;45528;52.102;5.242;2023-08-01T06:41:42;7.3;;;2.0;;
32451;SDS011;45528;52.102;5.242;2023-08-01T06:43:19;5.9;;;2.1;;
32451;SDS011;45528;52.102;5.242;2023-08-01T06:46:30;5.0;;;2.0;;
32451;SDS011;45528;52.102;5.242;2023-08-01T06:48:06;5.4;;;2.4;;
32451;SDS011;45528;52.102;5.242;2023-08-01T06:49:42;7.8;;;2.0;;
32451;SDS011;45528;52.102;5.242;2023-08-01T06:52:54;8.81;;;2.5;;
32451;SDS011;45528;52.102;5.242;2023-08-01T06:54:32;8.5;;;2.31;;
32451;SDS011;45528;52.102;5.242;2023-08-01T06:56:08;6.1;;;2.4;;
32451;SDS011;45528;52.102;5.242;2023-08-01T06:57:43;7.2;;;2.21;;
32451;SDS011;45528;52.102;5.242;2023-08-01T07:00:56;4.41;;;1.8;;
32451;SDS011;45528;52.102;5.242;2023-08-01T07:02:33;6.1;;;2.21;;
32451;SDS011;45528;52.102;5.242;2023-08-01T07:04:09;9.6;;;2.4;;
32451;SDS011;45528;52.102;5.242;2023-08-01T07:07:21;5.2;;;1.9;;
32451;SDS011;45528;52.102;5.242;2023-08-01T07:08:58;5.8;;;2.0;;
32451;SDS011;45528;52.102;5.242;2023-08-01T07:10:34;3.6;;;1.8;;
32451;SDS011;45528;52.102;5.242;2023-08-01T07:13:47;9.31;;;1.9;;
32451;SDS011;45528;52.102;5.242;2023-08-01T07:15:23;6.1;;;2.0;;
32451;SDS011;45528;52.102;5.242;2023-08-01T07:16:59;8.0;;;2.21;;
32451;SDS011;45528;52.102;5.242;2023-08-01T07:18:35;6.1;;;1.7;;
32451;SDS011;45528;52.102;5.242;2023-08-01T07:21:47;5.0;;;1.8;;
32451;SDS011;45528;52.102;5.242;2023-08-01T07:23:23;5.0;;;1.7;;
32451;SDS011;45528;52.102;5.242;2023-08-01T07:24:59;7.5;;;1.9;;
32451;SDS011;45528;52.102;5.242;2023-08-01T07:28:12;6.6;;;1.8;;
32451;SDS011;45528;52.102;5.242;2023-08-01T07:29:48;3.7;;;1.7;;
32451;SDS011;45528;52.102;5.242;2023-08-01T07:31:24;3.7;;;1.7;;
32451;SDS011;45528;52.102;5.242;2023-08-01T07:34:36;5.3;;;1.6;;
32451;SDS011;45528;52.102;5.242;2023-08-01T07:36:12;7.8;;;1.9;;
32451;SDS011;45528;52.102;5.242;2023-08-01T07:37:48;5.5;;;1.6;;
32451;SDS011;45528;52.102;5.242;2023-08-01T07:41:02;4.3;;;1.6;;
32451;SDS011;45528;52.102;5.242;2023-08-01T07:42:39;4.7;;;1.4;;
32451;SDS011;45528;52.102;5.242;2023-08-01T07:44:15;4.41;;;1.7;;
32451;SDS011;45528;52.102;5.242;2023-08-01T07:45:54;4.41;;;1.7;;
32451;SDS011;45528;52.102;5.242;2023-08-01T07:49:08;3.3;;;1.7;;
32451;SDS011;45528;52.102;5.242;2023-08-01T07:50:44;4.3;;;1.6;;
32451;SDS011;45528;52.102;5.242;2023-08-01T07:52:20;4.8;;;1.7;;
32451;SDS011;45528;52.102;5.242;2023-08-01T07:55:33;6.8;;;2.1;;
32451;SDS011;45528;52.102;5.242;2023-08-01T07:57:10;7.4;;;2.21;;
32451;SDS011;45528;52.102;5.242;2023-08-01T07:58:47;6.4;;;1.9;;
32451;SDS011;45528;52.102;5.242;2023-08-01T08:00:23;5.9;;;2.0;;
32451;SDS011;45528;52.102;5.242;2023-08-01T08:03:35;8.0;;;2.31;;
32451;SDS011;45528;52.102;5.242;2023-08-01T08:05:11;4.3;;;1.7;;
32451;SDS011;45528;52.102;5.242;2023-08-01T08:06:47;6.4;;;2.0;;
32451;SDS011;45528;52.102;5.242;2023-08-01T08:10:00;4.3;;;1.7;;
32451;SDS011;45528;52.102;5.242;2023-08-01T08:11:36;3.6;;;2.0;;
32451;SDS011;45528;52.102;5.242;2023-08-01T08:13:12;6.5;;;2.4;;
32451;SDS011;45528;52.102;5.242;2023-08-01T08:16:24;5.7;;;1.8;;
32451;SDS011;45528;52.102;5.242;2023-08-01T08:18:00;4.61;;;1.6;;
32451;SDS011;45528;52.102;5.242;2023-08-01T08:19:37;4.1;;;1.9;;
32451;SDS011;45528;52.102;5.242;2023-08-01T08:22:49;5.4;;;1.6;;
32451;SDS011;45528;52.102;5.242;2023-08-01T08:24:26;4.7;;;1.4;;
32451;SDS011;45528;52.102;5.242;2023-08-01T08:26:02;5.0;;;1.5;;
32451;SDS011;45528;52.102;5.242;2023-08-01T08:27:38;5.5;;;1.5;;
32451;SDS011;45528;52.102;5.242;2023-08-01T08:30:51;4.0;;;1.2;;
32451;SDS011;45528;52.102;5.242;2023-08-01T08:32:27;6.8;;;1.7;;
32451;SDS011;45528;52.102;5.242;2023-08-01T08:34:03;4.0;;;1.5;;
32451;SDS011;45528;52.102;5.242;2023-08-01T08:37:15;6.3;;;1.8;;
32451;SDS011;45528;52.102;5.242;2023-08-01T08:38:52;5.4;;;1.3;;
32451;SDS011;45528;52.102;5.242;2023-08-01T08:40:28;5.4;;;1.4;;
32451;SDS011;45528;52.102;5.242;2023-08-01T08:43:41;7.1;;;1.6;;
32451;SDS011;45528;52.102;5.242;2023-08-01T08:45:18;7.5;;;1.7;;
32451;SDS011;45528;52.102;5.242;2023-08-01T08:46:55;3.8;;;1.3;;
32451;SDS011;45528;52.102;5.242;2023-08-01T08:48:38;3.0;;;1.4;;
32451;SDS011;45528;52.102;5.242;2023-08-01T08:51:54;4.61;;;1.5;;
32451;SDS011;45528;52.102;5.242;2023-08-01T08:53:31;5.11;;;1.5;;
32451;SDS011;45528;52.102;5.242;2023-08-01T08:55:08;4.5;;;1.5;;
32451;SDS011;45528;52.102;5.242;2023-08-01T08:58:22;6.4;;;1.5;;
32451;SDS011;45528;52.102;5.242;2023-08-01T08:59:59;4.3;;;1.7;;
32451;SDS011;45528;52.102;5.242;2023-08-01T09:01:40;4.7;;;1.2;;
32451;SDS011;45528;52.102;5.242;2023-08-01T09:03:16;7.8;;;1.8;;
32451;SDS011;45528;52.102;5.242;2023-08-01T09:06:29;4.1;;;1.4;;
32451;SDS011;45528;52.102;5.242;2023-08-01T09:08:15;4.1;;;1.3;;
32451;SDS011;45528;52.102;5.242;2023-08-01T09:09:54;4.5;;;1.8;;
32451;SDS011;45528;52.102;5.242;2023-08-01T09:11:37;7.0;;;1.7;;
32451;SDS011;45528;52.102;5.242;2023-08-01T09:14:54;3.4;;;1.3;;
32451;SDS011;45528;52.102;5.242;2023-08-01T09:16:32;4.1;;;1.4;;
32451;SDS011;45528;52.102;5.242;2023-08-01T09:18:09;6.9;;;1.5;;
32451;SDS011;45528;52.102;5.242;2023-08-01T09:21:21;5.7;;;1.6;;
32451;SDS011;45528;52.102;5.242;2023-08-01T09:22:58;5.0;;;1.6;;
32451;SDS011;45528;52.102;5.242;2023-08-01T09:24:34;5.9;;;1.6;;
32451;SDS011;45528;52.102;5.242;2023-08-01T09:26:12;6.3;;;1.5;;
32451;SDS011;45528;52.102;5.242;2023-08-01T09:29:25;3.9;;;1.5;;
32451;SDS011;45528;52.102;5.242;2023-08-01T09:31:01;6.9;;;1.6;;
32451;SDS011;45528;52.102;5.242;2023-08-01T09:32:37;6.4;;;1.9;;
32451;SDS011;45528;52.102;5.242;2023-08-01T09:35:55;6.0;;;1.8;;
32451;SDS011;45528;52.102;5.242;2023-08-01T09:37:39;5.4;;;1.6;;
32451;SDS011;45528;52.102;5.242;2023-08-01T09:39:17;6.1;;;2.0;;
32451;SDS011;45528;52.102;5.242;2023-08-01T09:40:54;8.6;;;1.8;;
32451;SDS011;45528;52.102;5.242;2023-08-01T09:44:15;8.1;;;1.8;;
32451;SDS011;45528;52.102;5.242;2023-08-01T09:45:52;7.2;;;2.1;;
32451;SDS011;45528;52.102;5.242;2023-08-01T09:47:35;5.11;;;2.0;;
32451;SDS011;45528;52.102;5.242;2023-08-01T09:49:12;5.6;;;1.5;;
32451;SDS011;45528;52.102;5.242;2023-08-01T09:52:27;4.8;;;1.7;;
32451;SDS011;45528;52.102;5.242;2023-08-01T09:54:03;7.8;;;2.0;;
32451;SDS011;45528;52.102;5.242;2023-08-01T09:55:39;4.41;;;1.6;;
32451;SDS011;45528;52.102;5.242;2023-08-01T09:58:58;4.7;;;1.7;;
32451;SDS011;45528;52.102;5.242;2023-08-01T10:00:36;3.0;;;1.3;;
32451;SDS011;45528;52.102;5.242;2023-08-01T10:02:14;3.9;;;1.5;;
32451;SDS011;45528;52.102;5.242;2023-08-01T10:03:55;7.6;;;1.2;;
32451;SDS011;45528;52.102;5.242;2023-08-01T10:07:11;3.5;;;1.2;;
32451;SDS011;45528;52.102;5.242;2023-08-01T10:08:50;5.0;;;1.5;;
32451;SDS011;45528;52.102;5.242;2023-08-01T10:10:27;6.6;;;1.9;;
32451;SDS011;45528;52.102;5.242;2023-08-01T10:13:45;6.4;;;1.5;;
32451;SDS011;45528;52.102;5.242;2023-08-01T10:15:22;5.7;;;1.5;;
32451;SDS011;45528;52.102;5.242;2023-08-01T10:17:00;6.2;;;1.8;;
32451;SDS011;45528;52.102;5.242;2023-08-01T10:18:38;5.6;;;1.5;;
32451;SDS011;45528;52.102;5.242;2023-08-01T10:21:52;6.2;;;1.4;;
32451;SDS011;45528;52.102;5.242;2023-08-01T10:23:29;3.9;;;1.5;;
32451;SDS011;45528;52.102;5.242;2023-08-01T10:25:07;4.61;;;1.5;;
32451;SDS011;45528;52.102;5.242;2023-08-01T10:28:30;3.5;;;1.2;;
32451;SDS011;45528;52.102;5.242;2023-08-01T10:30:07;4.3;;;1.3;;
32451;SDS011;45528;52.102;5.242;2023-08-01T10:31:50;2.8;;;1.2;;
32451;SDS011;45528;52.102;5.242;2023-08-01T10:33:32;4.8;;;1.3;;
32451;SDS011;45528;52.102;5.242;2023-08-01T10:36:52;3.9;;;1.2;;
32451;SDS011;45528;52.102;5.242;2023-08-01T10:38:30;4.3;;;1.3;;
32451;SDS011;45528;52.102;5.242;2023-08-01T10:40:06;5.4;;;1.3;;
32451;SDS011;45528;52.102;5.242;2023-08-01T10:41:43;5.8;;;1.5;;
32451;SDS011;45528;52.102;5.242;2023-08-01T10:44:56;4.3;;;1.5;;
32451;SDS011;45528;52.102;5.242;2023-08-01T10:46:48;5.6;;;1.3;;
32451;SDS011;45528;52.102;5.242;2023-08-01T10:48:26;4.8;;;1.5;;
32451;SDS011;45528;52.102;5.242;2023-08-01T10:50:02;4.7;;;1.2;;
32451;SDS011;45528;52.102;5.242;2023-08-01T10:53:36;3.4;;;1.11;;
32451;SDS011;45528;52.102;5.242;2023-08-01T10:55:13;3.7;;;1.4;;
32451;SDS011;45528;52.102;5.242;2023-08-01T10:56:50;5.2;;;1.11;;
32451;SDS011;45528;52.102;5.242;2023-08-01T10:58:32;6.0;;;1.5;;
32451;SDS011;45528;52.102;5.242;2023-08-01T11:01:45;6.0;;;1.4;;
32451;SDS011;45528;52.102;5.242;2023-08-01T11:03:23;4.61;;;1.3;;
32451;SDS011;45528;52.102;5.242;2023-08-01T11:05:10;6.3;;;1.5;;
32451;SDS011;45528;52.102;5.242;2023-08-01T11:06:47;7.9;;;1.2;;
32451;SDS011;45528;52.102;5.242;2023-08-01T11:10:11;5.0;;;1.5;;
32451;SDS011;45528;52.102;5.242;2023-08-01T11:11:49;7.0;;;1.6;;
32451;SDS011;45528;52.102;5.242;2023-08-01T11:13:27;4.1;;;1.5;;
32451;SDS011;45528;52.102;5.242;2023-08-01T11:15:04;4.0;;;1.4;;
32451;SDS011;45528;52.102;5.242;2023-08-01T11:18:19;4.41;;;1.6;;
32451;SDS011;45528;52.102;5.242;2023-08-01T11:20:03;6.8;;;1.5;;
32451;SDS011;45528;52.102;5.242;2023-08-01T11:21:52;4.41;;;1.6;;
32451;SDS011;45528;52.102;5.242;2023-08-01T11:23:30;4.0;;;1.5;;
32451;SDS011;45528;52.102;5.242;2023-08-01T11:26:42;2.7;;;1.3;;
32451;SDS011;45528;52.102;5.242;2023-08-01T11:28:19;5.2;;;1.11;;
32451;SDS011;45528;52.102;5.242;2023-08-01T11:29:56;5.0;;;1.5;;
32451;SDS011;45528;52.102;5.242;2023-08-01T11:33:16;6.1;;;1.2;;
32451;SDS011;45528;52.102;5.242;2023-08-01T11:34:55;4.41;;;1.4;;
32451;SDS011;45528;52.102;5.242;2023-08-01T11:36:31;4.7;;;1.3;;
32451;SDS011;45528;52.102;5.242;2023-08-01T11:38:08;3.3;;;1.3;;
32451;SDS011;45528;52.102;5.242;2023-08-01T11:41:22;3.6;;;1.2;;
32451;SDS011;45528;52.102;5.242;2023-08-01T11:42:59;4.2;;;1.4;;
32451;SDS011;45528;52.102;5.242;2023-08-01T11:44:35;5.11;;;1.11;;
32451;SDS011;45528;52.102;5.242;2023-08-01T11:47:48;5.5;;;1.3;;
32451;SDS011;45528;52.102;5.242;2023-08-01T11:49:24;5.5;;;1.3;;
32451;SDS011;45528;52.102;5.242;2023-08-01T11:51:01;6.9;;;1.4;;
32451;SDS011;45528;52.102;5.242;2023-08-01T11:52:38;4.1;;;1.5;;
32451;SDS011;45528;52.102;5.242;2023-08-01T11:55:51;5.5;;;1.6;;
32451;SDS011;45528;52.102;5.242;2023-08-01T11:57:27;4.3;;;1.11;;
32451;SDS011;45528;52.102;5.242;2023-08-01T11:59:11;4.5;;;1.4;;
32451;SDS011;45528;52.102;5.242;2023-08-01T12:02:25;5.7;;;1.6;;
32451;SDS011;45528;52.102;5.242;2023-08-01T12:04:03;9.9;;;1.5;;
32451;SDS011;45528;52.102;5.242;2023-08-01T12:05:39;5.5;;;1.5;;
32451;SDS011;45528;52.102;5.242;2023-08-01T12:07:16;4.41;;;1.5;;
32451;SDS011;45528;52.102;5.242;2023-08-01T12:10:36;6.9;;;1.7;;
32451;SDS011;45528;52.102;5.242;2023-08-01T12:12:13;5.9;;;1.6;;
32451;SDS011;45528;52.102;5.242;2023-08-01T12:13:59;5.7;;;1.5;;
32451;SDS011;45528;52.102;5.242;2023-08-01T12:17:13;9.31;;;1.6;;
32451;SDS011;45528;52.102;5.242;2023-08-01T12:18:50;5.5;;;1.5;;
32451;SDS011;45528;52.102;5.242;2023-08-01T12:20:26;5.2;;;1.4;;
32451;SDS011;45528;52.102;5.242;2023-08-01T12:22:02;4.0;;;1.5;;
32451;SDS011;45528;52.102;5.242;2023-08-01T12:25:15;5.0;;;1.6;;
32451;SDS011;45528;52.102;5.242;2023-08-01T12:26:51;7.7;;;1.7;;
32451;SDS011;45528;52.102;5.242;2023-08-01T12:28:27;6.5;;;1.5;;
32451;SDS011;45528;52.102;5.242;2023-08-01T12:31:40;5.4;;;1.5;;
32451;SDS011;45528;52.102;5.242;2023-08-01T12:33:17;6.0;;;1.5;;
32451;SDS011;45528;52.102;5.242;2023-08-01T12:34:53;8.81;;;1.8;;
32451;SDS011;45528;52.102;5.242;2023-08-01T12:38:05;4.91;;;1.6;;
32451;SDS011;45528;52.102;5.242;2023-08-01T12:39:41;3.0;;;1.2;;
32451;SDS011;45528;52.102;5.242;2023-08-01T12:41:17;5.9;;;1.3;;
32451;SDS011;45528;52.102;5.242;2023-08-01T12:42:53;5.3;;;1.4;;
32451;SDS011;45528;52.102;5.242;2023-08-01T12:46:05;8.6;;;1.2;;
32451;SDS011;45528;52.102;5.242;2023-08-01T12:47:42;4.1;;;1.3;;
32451;SDS011;45528;52.102;5.242;2023-08-01T12:49:18;4.61;;;1.5;;
32451;SDS011;45528;52.102;5.242;2023-08-01T12:52:31;4.1;;;1.2;;
32451;SDS011;45528;52.102;5.242;2023-08-01T12:54:07;4.0;;;1.2;;
32451;SDS011;45528;52.102;5.242;2023-08-01T12:55:43;4.7;;;1.3;;
32451;SDS011;45528;52.102;5.242;2023-08-01T12:58:56;3.7;;;1.11;;
32451;SDS011;45528;52.102;5.242;2023-08-01T13:00:32;2.5;;;1.11;;
32451;SDS011;45528;52.102;5.242;2023-08-01T13:02:08;3.5;;;1.3;;
32451;SDS011;45528;52.102;5.242;2023-08-01T13:03:45;5.0;;;1.4;;
32451;SDS011;45528;52.102;5.242;2023-08-01T13:06:57;2.9;;;1.4;;
32451;SDS011;45528;52.102;5.242;2023-08-01T13:08:33;4.3;;;1.4;;
32451;SDS011;45528;52.102;5.242;2023-08-01T13:10:09;5.8;;;1.6;;
32451;SDS011;45528;52.102;5.242;2023-08-01T13:13:21;5.3;;;1.6;;
32451;SDS011;45528;52.102;5.242;2023-08-01T13:14:57;7.5;;;1.6;;
32451;SDS011;45528;52.102;5.242;2023-08-01T13:16:33;5.4;;;1.7;;
32451;SDS011;45528;52.102;5.242;2023-08-01T13:19:46;6.8;;;1.7;;
32451;SDS011;45528;52.102;5.242;2023-08-01T13:21:22;4.2;;;1.6;;
32451;SDS011;45528;52.102;5.242;2023-08-01T13:22:58;6.8;;;2.0;;
32451;SDS011;45528;52.102;5.242;2023-08-01T13:26:10;6.7;;;1.7;;
32451;SDS011;45528;52.102;5.242;2023-08-01T13:27:46;5.6;;;1.6;;
32451;SDS011;45528;52.102;5.242;2023-08-01T13:29:22;8.6;;;2.1;;
32451;SDS011;45528;52.102;5.242;2023-08-01T13:30:59;5.8;;;1.8;;
32451;SDS011;45528;52.102;5.242;2023-08-01T13:34:12;4.3;;;1.7;;
32451;SDS011;45528;52.102;5.242;2023-08-01T13:35:50;5.3;;;1.9;;
32451;SDS011;45528;52.102;5.242;2023-08-01T13:37:27;7.8;;;2.0;;
32451;SDS011;45528;52.102;5.242;2023-08-01T13:40:39;4.61;;;1.3;;
32451;SDS011;45528;52.102;5.242;2023-08-01T13:42:15;6.5;;;1.8;;
32451;SDS011;45528;52.102;5.242;2023-08-01T13:43:51;6.1;;;1.4;;
32451;SDS011;45528;52.102;5.242;2023-08-01T13:47:06;4.2;;;1.11;;
32451;SDS011;45528;52.102;5.242;2023-08-01T13:48:42;4.41;;;1.3;;
32451;SDS011;45528;52.102;5.242;2023-08-01T13:50:18;3.3;;;1.0;;
32451;SDS011;45528;52.102;5.242;2023-08-01T13:51:54;3.4;;;1.2;;
32451;SDS011;45528;52.102;5.242;2023-08-01T13:55:06;4.0;;;1.3;;
32451;SDS011;45528;52.102;5.242;2023-08-01T13:56:43;4.3;;;1.11;;
32451;SDS011;45528;52.102;5.242;2023-08-01T13:58:19;3.7;;;1.6;;
32451;SDS011;45528;52.102;5.242;2023-08-01T14:01:31;3.4;;;1.2;;
32451;SDS011;45528;52.102;5.242;2023-08-01T14:03:08;5.3;;;1.5;;
32451;SDS011;45528;52.102;5.242;2023-08-01T14:04:44;4.41;;;1.5;;
32451;SDS011;45528;52.102;5.242;2023-08-01T14:07:56;3.3;;;1.2;;
32451;SDS011;45528;52.102;5.242;2023-08-01T14:09:32;5.3;;;1.3;;
32451;SDS011;45528;52.102;5.242;2023-08-01T14:11:08;5.6;;;1.4;;
32451;SDS011;45528;52.102;5.242;2023-08-01T14:14:21;4.61;;;1.4;;
32451;SDS011;45528;52.102;5.242;2023-08-01T14:15:58;3.8;;;1.4;;
32451;SDS011;45528;52.102;5.242;2023-08-01T14:17:35;4.41;;;1.2;;
32451;SDS011;45528;52.102;5.242;2023-08-01T14:19:11;5.5;;;1.3;;
32451;SDS011;45528;52.102;5.242;2023-08-01T14:22:23;5.4;;;1.4;;
32451;SDS011;45528;52.102;5.242;2023-08-01T14:23:59;6.8;;;1.6;;
32451;SDS011;45528;52.102;5.242;2023-08-01T14:25:35;3.3;;;1.11;;
32451;SDS011;45528;52.102;5.242;2023-08-01T14:28:47;3.2;;;1.2;;
32451;SDS011;45528;52.102;5.242;2023-08-01T14:30:23;5.11;;;1.4;;
32451;SDS011;45528;52.102;5.242;2023-08-01T14:32:00;4.91;;;1.4;;
32451;SDS011;45528;52.102;5.242;2023-08-01T14:35:12;4.3;;;1.4;;
32451;SDS011;45528;52.102;5.242;2023-08-01T14:36:48;6.8;;;1.6;;
32451;SDS011;45528;52.102;5.242;2023-08-01T14:38:24;6.4;;;1.4;;
32451;SDS011;45528;52.102;5.242;2023-08-01T14:40:00;4.91;;;1.5;;
32451;SDS011;45528;52.102;5.242;2023-08-01T14:43:12;6.0;;;1.4;;
32451;SDS011;45528;52.102;5.242;2023-08-01T14:44:52;6.0;;;1.3;;
32451;SDS011;45528;52.102;5.242;2023-08-01T14:46:28;4.8;;;1.4;;
32451;SDS011;45528;52.102;5.242;2023-08-01T14:49:43;3.4;;;1.0;;
32451;SDS011;45528;52.102;5.242;2023-08-01T14:51:19;3.3;;;1.2;;
32451;SDS011;45528;52.102;5.242;2023-08-01T14:52:55;3.5;;;1.2;;
32451;SDS011;45528;52.102;5.242;2023-08-01T14:56:07;5.3;;;1.3;;
32451;SDS011;45528;52.102;5.242;2023-08-01T14:57:43;5.3;;;1.3;;
32451;SDS011;45528;52.102;5.242;2023-08-01T14:59:19;2.7;;;1.4;;
32451;SDS011;45528;52.102;5.242;2023-08-01T15:00:56;6.7;;;1.5;;
32451;SDS011;45528;52.102;5.242;2023-08-01T15:04:08;4.41;;;1.2;;
32451;SDS011;45528;52.102;5.242;2023-08-01T15:05:44;2.9;;;1.3;;
32451;SDS011;45528;52.102;5.242;2023-08-01T15:07:20;4.1;;;1.11;;
32451;SDS011;45528;52.102;5.242;2023-08-01T15:10:36;2.4;;;1.0;;
32451;SDS011;45528;52.102;5.242;2023-08-01T15:12:11;5.3;;;1.11;;
32451;SDS011;45528;52.102;5.242;2023-08-01T15:13:48;4.0;;;1.11;;
32451;SDS011;45528;52.102;5.242;2023-08-01T15:17:00;3.4;;;0.8;;
32451;SDS011;45528;52.102;5.242;2023-08-01T15:18:36;5.0;;;1.11;;
32451;SDS011;45528;52.102;5.242;2023-08-01T15:20:12;2.4;;;0.9;;
32451;SDS011;45528;52.102;5.242;2023-08-01T15:21:48;3.3;;;1.2;;
32451;SDS011;45528;52.102;5.242;2023-08-01T15:25:00;3.8;;;1.2;;
32451;SDS011;45528;52.102;5.242;2023-08-01T15:26:36;5.4;;;1.3;;
32451;SDS011;45528;52.102;5.242;2023-08-01T15:28:12;7.9;;;2.0;;
32451;SDS011;45528;52.102;5.242;2023-08-01T15:31:24;5.0;;;1.6;;
32451;SDS011;45528;52.102;5.242;2023-08-01T15:33:01;5.11;;;1.7;;
32451;SDS011;45528;52.102;5.242;2023-08-01T15:34:37;6.6;;;2.31;;
32451;SDS011;45528;52.102;5.242;2023-08-01T15:37:49;4.7;;;1.7;;
32451;SDS011;45528;52.102;5.242;2023-08-01T15:39:25;5.11;;;1.5;;
32451;SDS011;45528;52.102;5.242;2023-08-01T15:41:01;3.6;;;1.11;;
32451;SDS011;45528;52.102;5.242;2023-08-01T15:44:13;4.8;;;1.11;;
32451;SDS011;45528;52.102;5.242;2023-08-01T15:45:50;2.0;;;0.9;;
32451;SDS011;45528;52.102;5.242;2023-08-01T15:47:27;3.4;;;1.11;;
32451;SDS011;45528;52.102;5.242;2023-08-01T15:49:03;3.3;;;1.0;;
32451;SDS011;45528;52.102;5.242;2023-08-01T15:52:15;3.0;;;1.0;;
32451;SDS011;45528;52.102;5.242;2023-08-01T15:53:51;3.3;;;0.9;;
32451;SDS011;45528;52.102;5.242;2023-08-01T15:55:28;2.9;;;1.11;;
32451;SDS011;45528;52.102;5.242;2023-08-01T15:58:41;5.0;;;0.9;;
32451;SDS011;45528;52.102;5.242;2023-08-01T16:00:17;1.8;;;0.8;;
32451;SDS011;45528;52.102;5.242;2023-08-01T16:01:53;2.0;;;0.9;;
32451;SDS011;45528;52.102;5.242;2023-08-01T16:05:06;4.91;;;1.5;;
32451;SDS011;45528;52.102;5.242;2023-08-01T16:06:43;4.1;;;1.11;;
32451;SDS011;45528;52.102;5.242;2023-08-01T16:08:19;3.0;;;1.11;;
32451;SDS011;45528;52.102;5.242;2023-08-01T16:11:31;2.0;;;1.0;;
32451;SDS011;45528;52.102;5.242;2023-08-01T16:13:07;3.1;;;1.0;;
32451;SDS011;45528;52.102;5.242;2023-08-01T16:14:44;3.9;;;1.2;;
32451;SDS011;45528;52.102;5.242;2023-08-01T16:16:20;3.6;;;1.3;;
32451;SDS011;45528;52.102;5.242;2023-08-01T16:19:33;4.2;;;1.2;;
32451;SDS011;45528;52.102;5.242;2023-08-01T16:21:09;4.5;;;1.2;;
32451;SDS011;45528;52.102;5.242;2023-08-01T16:22:45;3.8;;;1.2;;
32451;SDS011;45528;52.102;5.242;2023-08-01T16:25:57;5.6;;;1.7;;
32451;SDS011;45528;52.102;5.242;2023-08-01T16:27:34;4.7;;;1.5;;
32451;SDS011;45528;52.102;5.242;2023-08-01T16:29:10;4.1;;;1.5;;
32451;SDS011;45528;52.102;5.242;2023-08-01T16:32:24;5.4;;;1.4;;
32451;SDS011;45528;52.102;5.242;2023-08-01T16:34:01;4.2;;;1.5;;
32451;SDS011;45528;52.102;5.242;2023-08-01T16:35:37;3.5;;;1.3;;
32451;SDS011;45528;52.102;5.242;2023-08-01T16:37:13;3.6;;;1.5;;
32451;SDS011;45528;52.102;5.242;2023-08-01T16:40:24;6.3;;;1.8;;